sensor_id;sensor_type;location;lat;lon;timestamp;temperature;humidity
4028;DHT22;2028;51.346;12.396;2023-04-25T02:40:18;8.60;99.90
4028;DHT22;2028;51.346;12.396;2023-04-25T02:45:11;8.50;99.90
4028;DHT22;2028;51.346;12.396;2023-04-25T02:47:37;8.60;99.90
4028;DHT22;2028;51.346;12.396;2023-04-25T02:52:30;8.60;99.90
4028;DHT22;2028;51.346;12.396;2023-04-25T02:54:56;8.50;99.90
4028;DHT22;2028;51.346;12.396;2023-04-25T02:59:48;8.50;99.90
4028;DHT22;2028;51.346;12.396;2023-04-25T03:02:14;8.40;99.90
4028;DHT22;2028;51.346;12.396;2023-04-25T03:04:40;8.40;99.90
4028;DHT22;2028;51.346;12.396;2023-04-25T03:07:06;8.30;99.90
4028;DHT22;2028;51.346;12.396;2023-04-25T03:09:32;8.30;99.90
4028;DHT22;2028;51.346;12.396;2023-04-25T03:11:58;8.30;99.90
4028;DHT22;2028;51.346;12.396;2023-04-25T03:14:24;8.30;99.90
4028;DHT22;2028;51.346;12.396;2023-04-25T03:19:16;8.30;99.90
4028;DHT22;2028;51.346;12.396;2023-04-25T03:21:43;8.30;99.90
4028;DHT22;2028;51.346;12.396;2023-04-25T03:24:09;8.30;99.90
4028;DHT22;2028;51.346;12.396;2023-04-25T03:29:03;8.20;99.90
4028;DHT22;2028;51.346;12.396;2023-04-25T03:31:29;8.30;99.90
4028;DHT22;2028;51.346;12.396;2023-04-25T03:33:55;8.20;99.90
4028;DHT22;2028;51.346;12.396;2023-04-25T03:36:21;8.20;99.90
4028;DHT22;2028;51.346;12.396;2023-04-25T03:41:14;8.10;99.90
4028;DHT22;2028;51.346;12.396;2023-04-25T03:43:40;8.10;99.90
4028;DHT22;2028;51.346;12.396;2023-04-25T03:52:18;8.10;99.90
4028;DHT22;2028;51.346;12.396;2023-04-25T03:54:44;8.10;99.90
4028;DHT22;2028;51.346;12.396;2023-04-25T04:02:02;8.00;99.90
4028;DHT22;2028;51.346;12.396;2023-04-25T04:04:28;8.10;99.90
4028;DHT22;2028;51.346;12.396;2023-04-25T04:11:47;8.00;99.90
4028;DHT22;2028;51.346;12.396;2023-04-25T04:19:06;8.00;99.90
4028;DHT22;2028;51.346;12.396;2023-04-25T04:31:21;8.10;99.90
4028;DHT22;2028;51.346;12.396;2023-04-25T04:33:48;8.20;99.90
4028;DHT22;2028;51.346;12.396;2023-04-25T04:36:14;8.30;99.90
4028;DHT22;2028;51.346;12.396;2023-04-25T04:38:40;8.50;99.90
4028;DHT22;2028;51.346;12.396;2023-04-25T04:41:06;8.60;99.90
4028;DHT22;2028;51.346;12.396;2023-04-25T04:43:33;8.70;99.90
4028;DHT22;2028;51.346;12.396;2023-04-25T04:46:00;8.90;99.90
4028;DHT22;2028;51.346;12.396;2023-04-25T04:48:26;9.00;99.90
4028;DHT22;2028;51.346;12.396;2023-04-25T04:50:53;9.20;99.90
4028;DHT22;2028;51.346;12.396;2023-04-25T04:55:46;9.50;99.90
4028;DHT22;2028;51.346;12.396;2023-04-25T04:58:12;9.70;99.90
4028;DHT22;2028;51.346;12.396;2023-04-25T05:00:38;9.80;99.90
4028;DHT22;2028;51.346;12.396;2023-04-25T05:03:04;10.00;99.90
4028;DHT22;2028;51.346;12.396;2023-04-25T05:05:31;10.10;99.90
4028;DHT22;2028;51.346;12.396;2023-04-25T05:12:49;10.50;99.90
4028;DHT22;2028;51.346;12.396;2023-04-25T05:22:35;11.10;99.90
4028;DHT22;2028;51.346;12.396;2023-04-25T05:39:41;12.40;99.90
4028;DHT22;2028;51.346;12.396;2023-04-25T05:44:33;12.80;99.90
4028;DHT22;2028;51.346;12.396;2023-04-25T05:51:52;13.20;99.90
4028;DHT22;2028;51.346;12.396;2023-04-25T05:59:10;13.60;99.90
4028;DHT22;2028;51.346;12.396;2023-04-25T06:01:36;13.80;99.90
4028;DHT22;2028;51.346;12.396;2023-04-25T06:04:02;13.70;99.90
4028;DHT22;2028;51.346;12.396;2023-04-25T06:06:28;13.60;99.90
4028;DHT22;2028;51.346;12.396;2023-04-25T06:08:54;13.70;99.90
4028;DHT22;2028;51.346;12.396;2023-04-25T06:18:40;13.80;99.90
4028;DHT22;2028;51.346;12.396;2023-04-25T06:21:06;14.00;99.90
4028;DHT22;2028;51.346;12.396;2023-04-25T06:23:32;13.80;99.90
4028;DHT22;2028;51.346;12.396;2023-04-25T06:30:51;14.20;99.90
4028;DHT22;2028;51.346;12.396;2023-04-25T06:35:43;14.30;99.90
4028;DHT22;2028;51.346;12.396;2023-04-25T06:38:09;14.30;99.90
4028;DHT22;2028;51.346;12.396;2023-04-25T06:40:35;14.20;99.90
4028;DHT22;2028;51.346;12.396;2023-04-25T06:43:01;13.90;99.90
4028;DHT22;2028;51.346;12.396;2023-04-25T06:45:27;13.60;99.90
4028;DHT22;2028;51.346;12.396;2023-04-25T07:05:02;12.40;99.90
4028;DHT22;2028;51.346;12.396;2023-04-25T07:14:49;11.70;99.90
4028;DHT22;2028;51.346;12.396;2023-04-25T07:19:42;11.50;99.90
4028;DHT22;2028;51.346;12.396;2023-04-25T07:27:02;11.40;99.90
4028;DHT22;2028;51.346;12.396;2023-04-25T07:31:55;11.20;99.90
4028;DHT22;2028;51.346;12.396;2023-04-25T07:34:21;11.20;99.90
4028;DHT22;2028;51.346;12.396;2023-04-25T07:36:47;11.10;99.90
4028;DHT22;2028;51.346;12.396;2023-04-25T07:46:32;11.00;99.90
4028;DHT22;2028;51.346;12.396;2023-04-25T07:53:50;11.00;99.90
4028;DHT22;2028;51.346;12.396;2023-04-25T08:03:35;10.80;99.90
4028;DHT22;2028;51.346;12.396;2023-04-25T08:08:27;10.70;99.90
4028;DHT22;2028;51.346;12.396;2023-04-25T08:13:20;10.60;99.90
4028;DHT22;2028;51.346;12.396;2023-04-25T08:15:46;10.60;99.90
4028;DHT22;2028;51.346;12.396;2023-04-25T08:18:12;10.60;99.90
4028;DHT22;2028;51.346;12.396;2023-04-25T08:20:38;10.60;99.90
4028;DHT22;2028;51.346;12.396;2023-04-25T08:32:52;10.50;99.90
4028;DHT22;2028;51.346;12.396;2023-04-25T08:35:18;10.50;99.90
4028;DHT22;2028;51.346;12.396;2023-04-25T08:40:12;10.50;99.90
4028;DHT22;2028;51.346;12.396;2023-04-25T08:42:41;10.60;99.90
4028;DHT22;2028;51.346;12.396;2023-04-25T08:50:03;10.80;99.90
4028;DHT22;2028;51.346;12.396;2023-04-25T08:55:01;10.90;99.90
4028;DHT22;2028;51.346;12.396;2023-04-25T08:57:27;11.00;99.90
4028;DHT22;2028;51.346;12.396;2023-04-25T08:59:55;10.80;99.90
4028;DHT22;2028;51.346;12.396;2023-04-25T09:02:24;10.90;99.90
4028;DHT22;2028;51.346;12.396;2023-04-25T09:07:16;10.80;99.90
4028;DHT22;2028;51.346;12.396;2023-04-25T09:09:46;10.80;99.90
4028;DHT22;2028;51.346;12.396;2023-04-25T09:12:13;11.00;99.90
4028;DHT22;2028;51.346;12.396;2023-04-25T09:14:39;11.00;99.90
4028;DHT22;2028;51.346;12.396;2023-04-25T09:19:35;11.40;99.90
4028;DHT22;2028;51.346;12.396;2023-04-25T09:26:57;11.40;99.90
4028;DHT22;2028;51.346;12.396;2023-04-25T09:29:33;11.40;99.90
4028;DHT22;2028;51.346;12.396;2023-04-25T09:32:18;11.50;99.90
4028;DHT22;2028;51.346;12.396;2023-04-25T09:39:50;11.40;99.90
4028;DHT22;2028;51.346;12.396;2023-04-25T09:44:45;11.20;99.90
4028;DHT22;2028;51.346;12.396;2023-04-25T09:49:40;11.00;99.90
4028;DHT22;2028;51.346;12.396;2023-04-25T10:02:07;11.20;99.90
4028;DHT22;2028;51.346;12.396;2023-04-25T10:09:29;11.10;99.90
4028;DHT22;2028;51.346;12.396;2023-04-25T10:11:59;11.10;99.90
4028;DHT22;2028;51.346;12.396;2023-04-25T10:14:26;11.10;99.90
4028;DHT22;2028;51.346;12.396;2023-04-25T10:19:20;11.10;99.90
4028;DHT22;2028;51.346;12.396;2023-04-25T10:21:52;11.10;99.90
4028;DHT22;2028;51.346;12.396;2023-04-25T10:24:20;11.10;99.90
4028;DHT22;2028;51.346;12.396;2023-04-25T10:26:47;11.00;99.90
4028;DHT22;2028;51.346;12.396;2023-04-25T10:31:47;11.20;99.90
4028;DHT22;2028;51.346;12.396;2023-04-25T10:39:06;11.30;99.90
4028;DHT22;2028;51.346;12.396;2023-04-25T10:41:46;11.40;99.90
4028;DHT22;2028;51.346;12.396;2023-04-25T10:44:13;11.40;99.90
4028;DHT22;2028;51.346;12.396;2023-04-25T10:51:36;11.40;99.90
4028;DHT22;2028;51.346;12.396;2023-04-25T11:01:40;11.40;99.90
4028;DHT22;2028;51.346;12.396;2023-04-25T11:04:36;11.40;99.90
4028;DHT22;2028;51.346;12.396;2023-04-25T11:09:49;11.20;99.90
4028;DHT22;2028;51.346;12.396;2023-04-25T11:12:16;11.20;99.90
4028;DHT22;2028;51.346;12.396;2023-04-25T11:14:43;11.30;99.90
4028;DHT22;2028;51.346;12.396;2023-04-25T11:17:09;11.30;99.90
4028;DHT22;2028;51.346;12.396;2023-04-25T11:22:03;11.20;99.90
4028;DHT22;2028;51.346;12.396;2023-04-25T11:27:04;11.30;99.90
4028;DHT22;2028;51.346;12.396;2023-04-25T11:34:27;11.10;99.90
4028;DHT22;2028;51.346;12.396;2023-04-25T11:36:56;11.10;99.90
4028;DHT22;2028;51.346;12.396;2023-04-25T11:41:51;11.10;99.90
4028;DHT22;2028;51.346;12.396;2023-04-25T11:44:17;11.10;99.90
4028;DHT22;2028;51.346;12.396;2023-04-25T11:49:11;11.20;99.90
4028;DHT22;2028;51.346;12.396;2023-04-25T11:51:41;11.20;99.90
4028;DHT22;2028;51.346;12.396;2023-04-25T11:54:07;11.30;99.90
4028;DHT22;2028;51.346;12.396;2023-04-25T11:56:33;11.30;99.90
4028;DHT22;2028;51.346;12.396;2023-04-25T12:03:54;11.40;99.90
4028;DHT22;2028;51.346;12.396;2023-04-25T12:06:20;11.40;99.90
4028;DHT22;2028;51.346;12.396;2023-04-25T12:09:02;11.40;99.90
4028;DHT22;2028;51.346;12.396;2023-04-25T12:14:04;11.20;99.90
4028;DHT22;2028;51.346;12.396;2023-04-25T12:19:06;11.20;99.90
4028;DHT22;2028;51.346;12.396;2023-04-25T12:26:49;11.50;99.90
4028;DHT22;2028;51.346;12.396;2023-04-25T12:29:17;11.50;99.90
4028;DHT22;2028;51.346;12.396;2023-04-25T12:31:43;11.40;99.90
4028;DHT22;2028;51.346;12.396;2023-04-25T12:34:10;11.50;99.90
4028;DHT22;2028;51.346;12.396;2023-04-25T12:36:36;11.50;99.90
4028;DHT22;2028;51.346;12.396;2023-04-25T12:41:30;11.40;99.90
4028;DHT22;2028;51.346;12.396;2023-04-25T12:46:22;11.40;99.90
4028;DHT22;2028;51.346;12.396;2023-04-25T12:48:49;11.40;99.90
4028;DHT22;2028;51.346;12.396;2023-04-25T12:53:41;11.30;99.90
4028;DHT22;2028;51.346;12.396;2023-04-25T12:56:08;11.30;99.90
4028;DHT22;2028;51.346;12.396;2023-04-25T13:08:20;11.10;99.90
4028;DHT22;2028;51.346;12.396;2023-04-25T13:10:47;11.00;99.90
4028;DHT22;2028;51.346;12.396;2023-04-25T13:15:40;11.00;99.90
4028;DHT22;2028;51.346;12.396;2023-04-25T13:20:33;11.00;99.90
4028;DHT22;2028;51.346;12.396;2023-04-25T13:32:45;11.00;99.90
4028;DHT22;2028;51.346;12.396;2023-04-25T13:35:12;11.10;99.90
4028;DHT22;2028;51.346;12.396;2023-04-25T13:37:39;11.20;99.90
4028;DHT22;2028;51.346;12.396;2023-04-25T13:42:35;11.40;99.90
4028;DHT22;2028;51.346;12.396;2023-04-25T13:45:02;11.40;99.90
4028;DHT22;2028;51.346;12.396;2023-04-25T13:52:22;11.40;99.90
4028;DHT22;2028;51.346;12.396;2023-04-25T13:57:17;11.50;99.90
4028;DHT22;2028;51.346;12.396;2023-04-25T14:07:03;11.90;99.90
4028;DHT22;2028;51.346;12.396;2023-04-25T14:11:55;11.90;99.90
4028;DHT22;2028;51.346;12.396;2023-04-25T14:14:22;11.90;99.90
4028;DHT22;2028;51.346;12.396;2023-04-25T14:16:49;11.90;99.90
4028;DHT22;2028;51.346;12.396;2023-04-25T14:19:17;11.80;99.90
4028;DHT22;2028;51.346;12.396;2023-04-25T14:24:10;11.80;99.90
4028;DHT22;2028;51.346;12.396;2023-04-25T14:29:06;11.70;99.90
4028;DHT22;2028;51.346;12.396;2023-04-25T14:31:34;11.80;99.90
4028;DHT22;2028;51.346;12.396;2023-04-25T14:36:28;11.80;99.90
4028;DHT22;2028;51.346;12.396;2023-04-25T14:41:20;11.70;99.90
4028;DHT22;2028;51.346;12.396;2023-04-25T14:48:39;11.70;99.90
4028;DHT22;2028;51.346;12.396;2023-04-25T14:51:05;11.70;99.90
4028;DHT22;2028;51.346;12.396;2023-04-25T14:58:25;11.70;99.90
4028;DHT22;2028;51.346;12.396;2023-04-25T15:08:10;11.70;99.90
4028;DHT22;2028;51.346;12.396;2023-04-25T15:13:03;11.50;99.90
4028;DHT22;2028;51.346;12.396;2023-04-25T15:15:29;11.50;99.90
4028;DHT22;2028;51.346;12.396;2023-04-25T15:20:22;11.40;99.90
4028;DHT22;2028;51.346;12.396;2023-04-25T15:35:08;11.40;99.90
4028;DHT22;2028;51.346;12.396;2023-04-25T15:40:24;11.50;99.90
4028;DHT22;2028;51.346;12.396;2023-04-25T15:42:51;11.50;99.90
4028;DHT22;2028;51.346;12.396;2023-04-25T15:45:18;11.40;99.90
4028;DHT22;2028;51.346;12.396;2023-04-25T15:47:45;11.40;99.90
4028;DHT22;2028;51.346;12.396;2023-04-25T16:12:12;11.30;99.90
4028;DHT22;2028;51.346;12.396;2023-04-25T16:29:17;11.10;99.90
4028;DHT22;2028;51.346;12.396;2023-04-25T16:31:43;11.10;99.90
4028;DHT22;2028;51.346;12.396;2023-04-25T16:43:54;11.00;99.90
4028;DHT22;2028;51.346;12.396;2023-04-25T17:01:02;10.70;99.90
4028;DHT22;2028;51.346;12.396;2023-04-25T17:05:54;10.60;99.90
4028;DHT22;2028;51.346;12.396;2023-04-25T17:13:19;10.60;99.90
4028;DHT22;2028;51.346;12.396;2023-04-25T17:18:12;10.50;99.90
4028;DHT22;2028;51.346;12.396;2023-04-25T17:23:04;10.50;99.90
4028;DHT22;2028;51.346;12.396;2023-04-25T17:32:51;10.40;99.90
4028;DHT22;2028;51.346;12.396;2023-04-25T17:49:59;10.30;99.90
4028;DHT22;2028;51.346;12.396;2023-04-25T18:01:26;10.10;99.90
4028;DHT22;2028;51.346;12.396;2023-04-25T20:57:35;8.70;99.90
4028;DHT22;2028;51.346;12.396;2023-04-25T21:02:30;8.60;99.90
4028;DHT22;2028;51.346;12.396;2023-04-25T21:04:56;8.60;99.90
4028;DHT22;2028;51.346;12.396;2023-04-25T21:09:48;8.60;99.90
4028;DHT22;2028;51.346;12.396;2023-04-25T21:19:33;8.60;99.90
4028;DHT22;2028;51.346;12.396;2023-04-25T21:39:06;8.60;99.90
4028;DHT22;2028;51.346;12.396;2023-04-25T21:56:09;8.30;99.90
4028;DHT22;2028;51.346;12.396;2023-04-25T22:03:32;8.30;99.90
4028;DHT22;2028;51.346;12.396;2023-04-25T22:15:47;8.20;99.90
4028;DHT22;2028;51.346;12.396;2023-04-25T22:20:40;8.10;99.90
4028;DHT22;2028;51.346;12.396;2023-04-25T22:23:06;8.10;99.90
4028;DHT22;2028;51.346;12.396;2023-04-25T22:25:33;8.10;99.90
4028;DHT22;2028;51.346;12.396;2023-04-25T22:27:59;8.00;99.90
4028;DHT22;2028;51.346;12.396;2023-04-25T22:30:25;8.00;99.90
4028;DHT22;2028;51.346;12.396;2023-04-25T22:32:51;8.00;99.90
4028;DHT22;2028;51.346;12.396;2023-04-25T22:40:11;8.00;99.90
4028;DHT22;2028;51.346;12.396;2023-04-25T22:42:38;8.00;99.90
4028;DHT22;2028;51.346;12.396;2023-04-25T22:49:59;8.00;99.90
4028;DHT22;2028;51.346;12.396;2023-04-25T22:52:28;7.90;99.90
4028;DHT22;2028;51.346;12.396;2023-04-25T22:54:54;7.90;99.90
4028;DHT22;2028;51.346;12.396;2023-04-25T22:57:20;7.90;99.90
4028;DHT22;2028;51.346;12.396;2023-04-25T23:04:39;7.80;99.90
4028;DHT22;2028;51.346;12.396;2023-04-25T23:07:05;7.80;99.90
4028;DHT22;2028;51.346;12.396;2023-04-25T23:09:31;7.80;99.90
4028;DHT22;2028;51.346;12.396;2023-04-25T23:14:24;7.70;99.90
4028;DHT22;2028;51.346;12.396;2023-04-25T23:19:16;7.60;99.90
4028;DHT22;2028;51.346;12.396;2023-04-25T23:24:09;7.60;99.90
4028;DHT22;2028;51.346;12.396;2023-04-25T23:26:35;7.50;99.90
4028;DHT22;2028;51.346;12.396;2023-04-25T23:31:29;7.50;99.90
4028;DHT22;2028;51.346;12.396;2023-04-25T23:33:55;7.50;99.90
4028;DHT22;2028;51.346;12.396;2023-04-25T23:36:21;7.50;99.90
4028;DHT22;2028;51.346;12.396;2023-04-25T23:43:41;7.40;99.90
4028;DHT22;2028;51.346;12.396;2023-04-25T23:48:34;7.20;99.90
4028;DHT22;2028;51.346;12.396;2023-04-25T23:53:26;7.20;99.90
4028;DHT22;2028;51.346;12.396;2023-04-25T23:55:52;7.20;99.90
4028;DHT22;2028;51.346;12.396;2023-04-25T23:58:18;7.20;99.90
